createdAt,value
2023-02-12T00:01:55.688Z,3.58
2023-02-12T00:04:22.606Z,3.03
2023-02-12T00:06:49.725Z,2.30
2023-02-12T00:09:16.598Z,2.65
2023-02-12T00:11:43.378Z,2.80
2023-02-12T00:14:10.263Z,2.97
2023-02-12T00:16:37.225Z,2.72
2023-02-12T00:19:04.165Z,1.80
2023-02-12T00:21:31.084Z,1.95
2023-02-12T00:23:58.262Z,1.50
2023-02-12T00:26:25.571Z,1.40
2023-02-12T00:28:53.133Z,1.35
2023-02-12T00:31:27.285Z,1.45
2023-02-12T00:33:54.418Z,1.20
2023-02-12T00:36:23.719Z,1.48
2023-02-12T00:38:52.975Z,1.77
2023-02-12T00:41:20.469Z,2.03
2023-02-12T00:43:47.451Z,2.53
2023-02-12T00:46:14.492Z,2.50
2023-02-12T00:48:41.638Z,2.35
2023-02-12T00:51:09.121Z,2.10
2023-02-12T00:53:36.416Z,1.50
2023-02-12T00:56:03.824Z,1.45
2023-02-12T00:58:30.660Z,1.27
2023-02-12T01:01:00.823Z,1.17
2023-02-12T01:03:27.708Z,1.42
2023-02-12T01:05:55.076Z,1.10
2023-02-12T01:08:22.186Z,1.38
2023-02-12T01:10:56.777Z,1.10
2023-02-12T01:13:24.152Z,1.05
2023-02-12T01:16:00.929Z,1.40
2023-02-12T01:18:27.793Z,2.00
2023-02-12T01:20:54.610Z,1.70
2023-02-12T01:23:21.488Z,1.50
2023-02-12T01:25:48.416Z,1.35
2023-02-12T01:28:15.261Z,1.58
2023-02-12T01:30:42.161Z,1.40
2023-02-12T01:33:09.069Z,1.30
2023-02-12T01:35:38.469Z,1.52
2023-02-12T01:38:05.330Z,1.40
2023-02-12T01:40:32.205Z,1.60
2023-02-12T01:43:04.071Z,1.17
2023-02-12T01:45:31.054Z,1.58
2023-02-12T01:48:00.670Z,2.08
2023-02-12T01:50:28.012Z,2.00
2023-02-12T01:52:57.359Z,2.88
2023-02-12T01:55:24.834Z,3.42
2023-02-12T01:57:52.066Z,3.30
2023-02-12T02:00:23.024Z,3.28
2023-02-12T02:03:00.292Z,3.25
2023-02-12T02:05:46.687Z,3.00
2023-02-12T02:08:13.717Z,2.30
2023-02-12T02:10:40.549Z,1.90
2023-02-12T02:13:26.534Z,1.67
2023-02-12T02:16:00.195Z,1.75
2023-02-12T02:18:42.073Z,2.70
2023-02-12T02:22:02.241Z,2.20
2023-02-12T02:24:40.783Z,2.28
2023-02-12T02:27:29.280Z,3.15
2023-02-12T02:30:14.609Z,2.55
2023-02-12T02:32:56.635Z,2.95
2023-02-12T02:35:59.522Z,3.33
2023-02-12T02:38:38.177Z,3.35
2023-02-12T02:41:11.296Z,3.42
2023-02-12T02:43:51.181Z,3.10
2023-02-12T02:46:20.557Z,3.38
2023-02-12T02:48:55.286Z,2.92
2023-02-12T02:51:27.441Z,2.00
2023-02-12T02:54:23.180Z,2.30
2023-02-12T02:56:52.327Z,2.20
2023-02-12T02:59:26.674Z,1.92
2023-02-12T03:02:02.702Z,1.52
2023-02-12T03:04:44.517Z,1.30
2023-02-12T03:07:25.538Z,1.20
2023-02-12T03:09:58.971Z,1.52
2023-02-12T03:12:38.281Z,2.40
2023-02-12T03:15:19.066Z,3.22
2023-02-12T03:17:49.255Z,3.00
2023-02-12T03:20:24.606Z,2.65
2023-02-12T03:22:56.211Z,2.45
2023-02-12T03:25:33.211Z,1.80
2023-02-12T03:28:09.766Z,1.40
2023-02-12T03:31:06.591Z,2.35
2023-02-12T03:33:33.356Z,1.80
2023-02-12T03:36:31.205Z,2.72
2023-02-12T03:39:08.670Z,2.28
2023-02-12T03:41:44.951Z,2.40
2023-02-12T03:44:32.166Z,2.42
2023-02-12T03:47:38.410Z,2.13
2023-02-12T03:50:24.971Z,2.30
2023-02-12T03:52:51.892Z,1.95
2023-02-12T03:55:18.829Z,1.80
2023-02-12T03:57:52.220Z,2.38
2023-02-12T04:00:23.108Z,2.30
2023-02-12T04:02:50.584Z,2.42
2023-02-12T04:05:23.892Z,2.92
2023-02-12T04:07:52.693Z,3.10
2023-02-12T04:10:30.532Z,2.85
2023-02-12T04:13:06.516Z,2.20
2023-02-12T04:16:14.345Z,2.17
2023-02-12T04:18:44.800Z,1.60
2023-02-12T04:21:23.692Z,1.25
2023-02-12T04:23:55.414Z,1.70
2023-02-12T04:26:34.784Z,1.67
2023-02-12T04:29:38.425Z,2.50
2023-02-12T04:32:27.717Z,2.33
2023-02-12T04:35:07.374Z,2.03
2023-02-12T04:37:45.809Z,2.20
2023-02-12T04:40:16.512Z,2.13
2023-02-12T04:42:49.097Z,1.80
2023-02-12T04:45:25.947Z,1.85
2023-02-12T04:47:53.242Z,1.50
2023-02-12T04:50:20.500Z,1.40
2023-02-12T04:52:47.528Z,1.23
2023-02-12T04:55:14.780Z,1.35
2023-02-12T04:57:41.630Z,1.50
2023-02-12T05:00:13.544Z,1.48
2023-02-12T05:02:40.498Z,1.20
2023-02-12T05:05:07.581Z,1.23
2023-02-12T05:07:34.846Z,1.20
2023-02-12T05:10:01.779Z,1.55
2023-02-12T05:12:28.637Z,1.75
2023-02-12T05:14:55.407Z,1.88
2023-02-12T05:17:24.231Z,2.05
2023-02-12T05:19:51.190Z,2.10
2023-02-12T05:22:18.706Z,1.90
2023-02-12T05:24:45.646Z,1.70
2023-02-12T05:27:12.538Z,2.20
2023-02-12T05:29:39.442Z,1.90
2023-02-12T05:32:07.058Z,2.00
2023-02-12T05:34:36.380Z,1.55
2023-02-12T05:37:03.832Z,1.85
2023-02-12T05:39:30.816Z,2.45
2023-02-12T05:41:57.617Z,1.83
2023-02-12T05:44:24.438Z,1.80
2023-02-12T05:46:51.223Z,1.52
2023-02-12T05:49:18.066Z,1.40
2023-02-12T05:51:44.861Z,1.27
2023-02-12T05:54:11.803Z,1.20
2023-02-12T05:56:44.165Z,1.30
2023-02-12T05:59:17.245Z,1.33
2023-02-12T06:01:45.292Z,1.33
2023-02-12T06:04:18.550Z,1.20
2023-02-12T06:06:45.828Z,1.23
2023-02-12T06:09:14.269Z,1.40
2023-02-12T06:11:41.250Z,1.15
2023-02-12T06:14:11.320Z,1.50
2023-02-12T06:16:38.240Z,1.20
2023-02-12T06:19:05.822Z,1.20
2023-02-12T06:21:33.862Z,1.33
2023-02-12T06:24:00.972Z,1.20
2023-02-12T06:26:28.234Z,1.08
2023-02-12T06:28:55.097Z,1.77
2023-02-12T06:31:28.567Z,1.50
2023-02-12T06:33:57.254Z,1.50
2023-02-12T06:36:24.973Z,1.80
2023-02-12T06:38:52.049Z,1.70
2023-02-12T06:41:21.393Z,1.90
2023-02-12T06:43:48.534Z,1.55
2023-02-12T06:46:15.456Z,2.25
2023-02-12T06:48:42.670Z,1.95
2023-02-12T06:51:21.947Z,1.65
2023-02-12T06:53:49.309Z,1.88
2023-02-12T06:56:16.589Z,1.30
2023-02-12T06:58:46.926Z,1.42
2023-02-12T07:01:19.771Z,1.33
2023-02-12T07:03:53.324Z,1.30
2023-02-12T07:06:20.949Z,1.20
2023-02-12T07:08:48.487Z,1.30
2023-02-12T07:11:15.833Z,1.55
2023-02-12T07:13:43.699Z,1.08
2023-02-12T07:16:13.533Z,1.45
2023-02-12T07:18:40.769Z,2.00
2023-02-12T07:21:08.930Z,1.23
2023-02-12T07:23:35.964Z,1.40
2023-02-12T07:26:08.702Z,1.30
2023-02-12T07:28:36.604Z,1.30
2023-02-12T07:31:12.397Z,1.33
2023-02-12T07:33:40.069Z,1.50
2023-02-12T07:36:09.816Z,1.33
2023-02-12T07:38:39.871Z,1.20
2023-02-12T07:41:17.230Z,1.40
2023-02-12T07:43:46.382Z,1.40
2023-02-12T07:46:26.380Z,1.70
2023-02-12T07:48:53.455Z,1.83
2023-02-12T07:51:20.411Z,1.65
2023-02-12T07:53:47.965Z,1.40
2023-02-12T07:56:14.785Z,1.40
2023-02-12T07:58:45.110Z,1.30
2023-02-12T08:01:36.237Z,1.33
2023-02-12T08:04:08.539Z,1.33
2023-02-12T08:06:38.204Z,1.55
2023-02-12T08:09:08.231Z,1.70
2023-02-12T08:11:35.344Z,1.40
2023-02-12T08:14:02.237Z,1.40
2023-02-12T08:16:30.022Z,2.03
2023-02-12T08:19:07.210Z,1.80
2023-02-12T08:21:41.645Z,1.20
2023-02-12T08:24:09.808Z,1.40
2023-02-12T08:26:39.147Z,1.70
2023-02-12T08:29:08.971Z,1.55
2023-02-12T08:31:41.516Z,1.60
2023-02-12T08:34:22.720Z,2.40
2023-02-12T08:36:51.440Z,2.70
2023-02-12T08:39:18.674Z,3.17
2023-02-12T08:41:46.581Z,3.30
2023-02-12T08:44:14.098Z,3.40
2023-02-12T08:46:48.547Z,2.65
2023-02-12T08:49:18.936Z,2.15
2023-02-12T08:51:48.901Z,2.33
2023-02-12T08:54:22.250Z,2.30
2023-02-12T08:56:49.057Z,1.95
2023-02-12T08:59:17.552Z,1.90
2023-02-12T09:01:45.126Z,2.40
2023-02-12T09:04:30.028Z,2.38
2023-02-12T09:06:56.933Z,2.20
2023-02-12T09:09:24.029Z,1.92
2023-02-12T09:11:50.944Z,1.85
2023-02-12T09:14:23.816Z,2.42
2023-02-12T09:16:53.166Z,2.10
2023-02-12T09:19:20.289Z,2.28
2023-02-12T09:21:52.806Z,2.33
2023-02-12T09:24:22.020Z,2.10
2023-02-12T09:26:49.222Z,2.72
2023-02-12T09:29:16.415Z,3.55
2023-02-12T09:31:43.742Z,3.00
2023-02-12T09:34:11.157Z,3.20
2023-02-12T09:36:38.316Z,3.30
2023-02-12T09:39:05.686Z,3.70
2023-02-12T09:41:39.055Z,4.10
2023-02-12T09:44:10.669Z,4.15
2023-02-12T09:46:48.617Z,4.07
2023-02-12T09:49:24.579Z,5.78
2023-02-12T09:51:54.089Z,4.60
2023-02-12T09:54:26.866Z,4.53
2023-02-12T09:56:56.150Z,4.15
2023-02-12T09:59:34.756Z,4.60
2023-02-12T10:02:02.017Z,4.22
2023-02-12T10:04:29.748Z,4.32
2023-02-12T10:07:04.228Z,5.13
2023-02-12T10:09:49.949Z,6.00
2023-02-12T10:12:37.364Z,7.45
2023-02-12T10:15:23.342Z,7.47
2023-02-12T10:18:17.095Z,9.05
2023-02-12T10:21:02.453Z,9.80
2023-02-12T10:23:47.939Z,9.85
2023-02-12T10:26:15.112Z,9.57
2023-02-12T10:28:43.274Z,9.52
2023-02-12T10:31:23.478Z,9.13
2023-02-12T10:33:51.543Z,11.07
2023-02-12T10:36:40.501Z,11.77
2023-02-12T10:39:13.769Z,10.05
2023-02-12T10:42:03.784Z,8.65
2023-02-12T10:44:32.107Z,7.70
2023-02-12T10:46:59.287Z,9.10
2023-02-12T10:49:26.904Z,8.68
2023-02-12T10:52:16.404Z,6.47
2023-02-12T10:54:45.038Z,7.15
2023-02-12T10:57:12.646Z,7.50
2023-02-12T10:59:40.853Z,8.18
2023-02-12T11:02:20.246Z,8.38
2023-02-12T11:04:47.929Z,8.93
2023-02-12T11:07:15.325Z,9.68
2023-02-12T11:09:46.870Z,8.63
2023-02-12T11:12:20.415Z,8.40
2023-02-12T11:14:54.991Z,12.07
2023-02-12T11:17:27.308Z,12.45
2023-02-12T11:20:23.586Z,14.20
2023-02-12T11:22:52.005Z,13.82
2023-02-12T11:25:19.343Z,12.93
2023-02-12T11:27:46.580Z,14.00
2023-02-12T11:30:16.247Z,13.57
2023-02-12T11:32:44.402Z,11.57
2023-02-12T11:35:11.592Z,9.52
2023-02-12T11:37:41.320Z,8.48
2023-02-12T11:40:15.214Z,10.73
2023-02-12T11:42:48.259Z,13.55
2023-02-12T11:45:20.880Z,10.45
2023-02-12T11:47:48.585Z,10.18
2023-02-12T11:50:32.499Z,9.85
2023-02-12T11:53:01.912Z,8.07
2023-02-12T11:55:33.914Z,9.15
2023-02-12T11:58:13.530Z,10.98
2023-02-12T12:00:59.469Z,11.00
2023-02-12T12:03:32.744Z,11.43
2023-02-12T12:06:18.539Z,11.77
2023-02-12T12:08:49.743Z,11.18
2023-02-12T12:11:19.232Z,9.35
2023-02-12T12:13:51.808Z,10.18
2023-02-12T12:16:45.888Z,10.95
2023-02-12T12:19:37.991Z,11.10
2023-02-12T12:22:20.274Z,10.77
2023-02-12T12:24:57.114Z,8.80
2023-02-12T12:27:56.111Z,8.85
2023-02-12T12:30:29.565Z,9.00
2023-02-12T12:32:58.474Z,9.20
2023-02-12T12:35:34.972Z,8.93
2023-02-12T12:38:06.795Z,8.98
2023-02-12T12:41:03.474Z,7.80
2023-02-12T12:43:40.371Z,9.90
2023-02-12T12:46:16.190Z,10.30
2023-02-12T12:48:46.168Z,8.43
2023-02-12T12:51:32.117Z,9.55
2023-02-12T12:54:26.773Z,7.78
2023-02-12T12:56:57.216Z,8.77
2023-02-12T12:59:24.639Z,8.00
2023-02-12T13:01:55.239Z,6.45
2023-02-12T13:04:41.108Z,7.22
2023-02-12T13:07:20.245Z,8.05
2023-02-12T13:09:58.725Z,8.23
2023-02-12T13:12:26.042Z,7.13
2023-02-12T13:15:05.645Z,6.13
2023-02-12T13:17:41.463Z,6.72
2023-02-12T13:20:15.632Z,6.25
2023-02-12T13:23:00.462Z,5.00
2023-02-12T13:25:46.415Z,4.22
2023-02-12T13:28:15.993Z,3.80
2023-02-12T13:30:45.886Z,3.13
2023-02-12T13:33:13.054Z,3.58
2023-02-12T13:35:42.775Z,5.50
2023-02-12T13:38:12.697Z,5.13
2023-02-12T13:40:41.254Z,4.65
2023-02-12T13:43:11.496Z,4.13
2023-02-12T13:45:41.569Z,3.40
2023-02-12T13:48:21.128Z,3.60
2023-02-12T13:50:57.263Z,3.90
2023-02-12T13:53:28.941Z,3.20
2023-02-12T13:56:03.031Z,2.70
2023-02-12T13:58:35.263Z,2.38
2023-02-12T14:01:04.356Z,3.00
2023-02-12T14:03:32.816Z,4.10
2023-02-12T14:06:15.253Z,4.53
2023-02-12T14:08:43.995Z,3.95
2023-02-12T14:11:16.412Z,4.22
2023-02-12T14:13:49.550Z,3.72
2023-02-12T14:16:40.134Z,2.95
2023-02-12T14:19:26.204Z,3.50
2023-02-12T14:21:53.352Z,5.15
2023-02-12T14:24:38.663Z,5.47
2023-02-12T14:27:26.036Z,5.70
2023-02-12T14:30:08.503Z,7.85
2023-02-12T14:32:53.420Z,6.15
2023-02-12T14:35:29.551Z,5.75
2023-02-12T14:37:58.131Z,7.47
2023-02-12T14:40:34.331Z,6.07
2023-02-12T14:43:03.176Z,5.22
2023-02-12T14:45:32.315Z,6.63
2023-02-12T14:47:59.624Z,8.30
2023-02-12T14:50:29.641Z,7.63
2023-02-12T14:53:05.037Z,5.55
2023-02-12T14:55:34.596Z,6.40
2023-02-12T14:58:04.028Z,4.72
2023-02-12T15:00:41.191Z,4.35
2023-02-12T15:03:14.516Z,5.20
2023-02-12T15:05:49.737Z,4.80
2023-02-12T15:08:32.548Z,4.40
2023-02-12T15:11:05.738Z,7.20
2023-02-12T15:13:44.953Z,8.10
2023-02-12T15:16:14.989Z,7.35
2023-02-12T15:18:46.324Z,6.50
2023-02-12T15:21:20.982Z,6.05
2023-02-12T15:23:57.904Z,5.47
2023-02-12T15:26:26.640Z,7.07
2023-02-12T15:28:54.308Z,6.03
2023-02-12T15:31:24.718Z,5.75
2023-02-12T15:33:52.788Z,5.93
2023-02-12T15:36:22.233Z,6.90
2023-02-12T15:38:51.186Z,6.20
2023-02-12T15:41:28.910Z,6.75
2023-02-12T15:43:56.944Z,5.03
2023-02-12T15:46:24.208Z,4.90
2023-02-12T15:48:51.543Z,6.88
2023-02-12T15:51:27.980Z,6.57
2023-02-12T15:53:55.377Z,4.38
2023-02-12T15:56:23.759Z,4.80
2023-02-12T15:58:52.558Z,4.20
2023-02-12T16:01:21.457Z,4.97
2023-02-12T16:03:59.846Z,5.90
2023-02-12T16:06:28.100Z,5.35
2023-02-12T16:08:58.052Z,5.80
2023-02-12T16:11:26.958Z,5.97
2023-02-12T16:13:56.412Z,7.43
2023-02-12T16:16:25.441Z,6.60
2023-02-12T16:19:06.490Z,6.47
2023-02-12T16:21:35.657Z,6.80
2023-02-12T16:24:02.934Z,5.60
2023-02-12T16:26:30.621Z,4.70
2023-02-12T16:28:58.244Z,5.45
2023-02-12T16:31:27.063Z,4.57
2023-02-12T16:33:57.715Z,4.35
2023-02-12T16:36:25.061Z,4.30
2023-02-12T16:38:53.639Z,4.20
2023-02-12T16:41:20.814Z,3.55
2023-02-12T16:43:49.153Z,3.75
2023-02-12T16:46:17.874Z,3.95
2023-02-12T16:48:55.107Z,5.13
2023-02-12T16:51:35.787Z,4.80
2023-02-12T16:54:04.409Z,3.67
2023-02-12T16:56:34.154Z,3.42
2023-02-12T16:59:02.413Z,2.78
2023-02-12T17:01:31.989Z,2.80
2023-02-12T17:04:00.135Z,2.47
2023-02-12T17:06:31.784Z,2.70
2023-02-12T17:08:59.790Z,2.30
2023-02-12T17:11:28.298Z,2.30
2023-02-12T17:13:56.100Z,2.10
2023-02-12T17:16:30.850Z,3.17
2023-02-12T17:18:59.135Z,2.90
2023-02-12T17:21:28.933Z,3.08
2023-02-12T17:23:56.280Z,2.63
2023-02-12T17:26:24.232Z,2.80
2023-02-12T17:28:51.424Z,2.92
2023-02-12T17:31:20.814Z,3.42
2023-02-12T17:33:49.240Z,3.25
2023-02-12T17:36:16.446Z,2.92
2023-02-12T17:38:43.903Z,2.78
2023-02-12T17:41:11.553Z,2.60
2023-02-12T17:43:38.752Z,2.50
2023-02-12T17:46:10.411Z,2.10
2023-02-12T17:48:37.700Z,2.50
2023-02-12T17:51:05.276Z,2.30
2023-02-12T17:53:32.677Z,2.60
2023-02-12T17:55:59.872Z,2.53
2023-02-12T17:58:27.367Z,2.42
2023-02-12T18:00:55.896Z,2.40
2023-02-12T18:03:23.687Z,2.55
2023-02-12T18:05:51.142Z,2.28
2023-02-12T18:08:18.378Z,2.45
2023-02-12T18:10:46.079Z,2.45
2023-02-12T18:13:14.080Z,2.33
2023-02-12T18:15:42.162Z,2.60
2023-02-12T18:18:09.767Z,2.40
2023-02-12T18:20:37.206Z,2.53
2023-02-12T18:23:06.549Z,2.35
2023-02-12T18:25:34.123Z,2.30
2023-02-12T18:28:01.874Z,2.20
2023-02-12T18:30:29.471Z,1.88
2023-02-12T18:32:56.775Z,2.10
2023-02-12T18:35:24.037Z,2.33
2023-02-12T18:37:51.318Z,2.00
2023-02-12T18:40:18.588Z,1.80
2023-02-12T18:42:46.313Z,1.83
2023-02-12T18:45:13.618Z,1.70
2023-02-12T18:47:40.797Z,2.00
2023-02-12T18:50:08.355Z,2.10
2023-02-12T18:52:37.149Z,2.00
2023-02-12T18:55:05.547Z,1.60
2023-02-12T18:57:32.789Z,1.60
2023-02-12T19:00:00.048Z,1.70
2023-02-12T19:02:27.353Z,1.35
2023-02-12T19:04:54.693Z,1.65
2023-02-12T19:07:22.123Z,1.83
2023-02-12T19:09:49.380Z,1.77
2023-02-12T19:12:16.602Z,2.13
2023-02-12T19:14:43.791Z,2.42
2023-02-12T19:17:11.149Z,2.10
2023-02-12T19:19:38.603Z,1.70
2023-02-12T19:22:05.956Z,1.80
2023-02-12T19:24:45.888Z,2.15
2023-02-12T19:27:13.372Z,2.33
2023-02-12T19:29:40.314Z,2.17
2023-02-12T19:32:07.299Z,2.38
2023-02-12T19:34:34.281Z,2.75
2023-02-12T19:37:01.094Z,2.42
2023-02-12T19:39:27.904Z,2.25
2023-02-12T19:41:56.242Z,1.77
2023-02-12T19:44:25.321Z,2.10
2023-02-12T19:46:53.307Z,2.20
2023-02-12T19:49:23.095Z,2.45
2023-02-12T19:51:50.557Z,2.22
2023-02-12T19:54:18.668Z,1.80
2023-02-12T19:56:46.407Z,2.10
2023-02-12T19:59:14.610Z,1.90
2023-02-12T20:01:42.048Z,1.85
2023-02-12T20:04:09.563Z,1.65
2023-02-12T20:06:38.148Z,1.90
2023-02-12T20:09:06.315Z,1.90
2023-02-12T20:11:34.838Z,1.95
2023-02-12T20:14:02.372Z,1.75
2023-02-12T20:16:38.096Z,2.25
2023-02-12T20:19:07.193Z,1.98
2023-02-12T20:21:35.350Z,2.08
2023-02-12T20:24:02.334Z,2.08
2023-02-12T20:26:31.043Z,2.22
2023-02-12T20:28:59.780Z,2.60
2023-02-12T20:31:32.692Z,2.47
2023-02-12T20:34:05.904Z,2.20
2023-02-12T20:36:35.219Z,1.90
2023-02-12T20:39:02.413Z,1.90
2023-02-12T20:41:29.339Z,1.83
2023-02-12T20:43:59.607Z,1.77
2023-02-12T20:46:27.347Z,2.22
2023-02-12T20:48:55.262Z,1.70
2023-02-12T20:51:25.799Z,2.42
2023-02-12T20:53:54.396Z,1.73
2023-02-12T20:56:26.777Z,2.00
2023-02-12T20:58:53.939Z,2.13
2023-02-12T21:01:21.937Z,1.83
2023-02-12T21:03:51.106Z,2.17
2023-02-12T21:06:19.424Z,2.03
2023-02-12T21:08:46.414Z,2.17
2023-02-12T21:11:19.558Z,2.28
2023-02-12T21:13:58.998Z,2.78
2023-02-12T21:16:32.401Z,1.80
2023-02-12T21:18:59.665Z,2.28
2023-02-12T21:21:31.714Z,2.28
2023-02-12T21:23:59.910Z,2.33
2023-02-12T21:26:28.940Z,2.13
2023-02-12T21:28:57.909Z,1.70
2023-02-12T21:31:34.220Z,1.60
2023-02-12T21:34:02.340Z,2.45
2023-02-12T21:36:38.149Z,1.83
2023-02-12T21:39:06.579Z,1.70
2023-02-12T21:41:36.494Z,1.80
2023-02-12T21:44:10.605Z,2.03
2023-02-12T21:46:37.761Z,2.10
2023-02-12T21:49:05.688Z,2.42
2023-02-12T21:51:38.477Z,2.90
2023-02-12T21:54:08.481Z,2.70
2023-02-12T21:56:39.900Z,2.38
2023-02-12T21:59:08.702Z,2.00
2023-02-12T22:01:37.497Z,2.08
2023-02-12T22:04:06.755Z,1.92
2023-02-12T22:06:37.636Z,2.30
2023-02-12T22:09:08.020Z,1.90
2023-02-12T22:11:38.879Z,2.70
2023-02-12T22:14:08.147Z,3.15
2023-02-12T22:16:36.185Z,3.40
2023-02-12T22:19:04.445Z,2.60
2023-02-12T22:21:34.342Z,2.40
2023-02-12T22:24:03.465Z,2.17
2023-02-12T22:26:31.998Z,2.85
2023-02-12T22:29:03.645Z,2.50
2023-02-12T22:31:33.216Z,2.85
2023-02-12T22:34:04.173Z,2.20
2023-02-12T22:36:31.543Z,2.17
2023-02-12T22:39:00.411Z,1.88
2023-02-12T22:41:29.012Z,1.92
2023-02-12T22:43:58.892Z,1.45
2023-02-12T22:46:26.089Z,2.13
2023-02-12T22:48:53.053Z,1.90
2023-02-12T22:51:25.759Z,1.80
2023-02-12T22:53:53.083Z,2.15
2023-02-12T22:56:20.224Z,1.98
2023-02-12T22:58:47.601Z,2.42
2023-02-12T23:01:18.952Z,1.58
2023-02-12T23:03:46.294Z,2.33
2023-02-12T23:06:15.571Z,2.50
2023-02-12T23:08:42.941Z,2.28
2023-02-12T23:11:10.406Z,2.28
2023-02-12T23:13:37.660Z,2.25
2023-02-12T23:16:05.151Z,2.47
2023-02-12T23:18:32.433Z,2.00
2023-02-12T23:21:00.113Z,1.67
2023-02-12T23:23:27.657Z,1.85
2023-02-12T23:25:54.765Z,1.88
2023-02-12T23:28:22.364Z,1.67
2023-02-12T23:30:50.508Z,1.40
2023-02-12T23:33:18.351Z,1.70
2023-02-12T23:35:46.078Z,1.80
2023-02-12T23:38:13.137Z,1.60
2023-02-12T23:40:41.146Z,1.77
2023-02-12T23:43:08.112Z,1.70
2023-02-12T23:45:34.919Z,1.85
2023-02-12T23:48:02.797Z,1.70
2023-02-12T23:50:29.820Z,1.73
2023-02-12T23:52:56.637Z,1.67
2023-02-12T23:55:23.527Z,1.75
2023-02-12T23:57:50.508Z,1.13
